sensor_id;sensor_type;location;lat;lon;timestamp;P1;durP1;ratioP1;P2;durP2;ratioP2
25437;SDS011;13364;49.084;9.978;2022-10-20T00:00:21;19.63;;;11.90;;
25437;SDS011;13364;49.084;9.978;2022-10-20T00:02:48;22.02;;;12.45;;
25437;SDS011;13364;49.084;9.978;2022-10-20T00:05:16;19.65;;;12.80;;
25437;SDS011;13364;49.084;9.978;2022-10-20T00:07:43;19.83;;;12.45;;
25437;SDS011;13364;49.084;9.978;2022-10-20T00:10:10;19.60;;;12.30;;
25437;SDS011;13364;49.084;9.978;2022-10-20T00:12:37;19.25;;;12.35;;
25437;SDS011;13364;49.084;9.978;2022-10-20T00:15:04;20.88;;;12.75;;
25437;SDS011;13364;49.084;9.978;2022-10-20T00:17:31;19.90;;;12.32;;
25437;SDS011;13364;49.084;9.978;2022-10-20T00:19:58;17.92;;;11.55;;
25437;SDS011;13364;49.084;9.978;2022-10-20T00:22:25;23.15;;;13.30;;
25437;SDS011;13364;49.084;9.978;2022-10-20T00:24:52;19.58;;;12.85;;
25437;SDS011;13364;49.084;9.978;2022-10-20T00:27:19;20.48;;;12.07;;
25437;SDS011;13364;49.084;9.978;2022-10-20T00:29:46;24.65;;;12.98;;
25437;SDS011;13364;49.084;9.978;2022-10-20T00:32:14;22.02;;;13.35;;
25437;SDS011;13364;49.084;9.978;2022-10-20T00:34:41;23.63;;;12.68;;
25437;SDS011;13364;49.084;9.978;2022-10-20T00:37:08;19.52;;;12.75;;
25437;SDS011;13364;49.084;9.978;2022-10-20T00:39:35;20.17;;;12.27;;
25437;SDS011;13364;49.084;9.978;2022-10-20T00:42:02;25.33;;;13.70;;
25437;SDS011;13364;49.084;9.978;2022-10-20T00:44:50;22.13;;;13.38;;
25437;SDS011;13364;49.084;9.978;2022-10-20T00:47:21;21.65;;;12.85;;
25437;SDS011;13364;49.084;9.978;2022-10-20T00:50:05;22.48;;;13.18;;
25437;SDS011;13364;49.084;9.978;2022-10-20T00:52:36;20.08;;;12.30;;
25437;SDS011;13364;49.084;9.978;2022-10-20T00:55:06;19.02;;;11.95;;
25437;SDS011;13364;49.084;9.978;2022-10-20T00:57:35;26.92;;;12.45;;
25437;SDS011;13364;49.084;9.978;2022-10-20T01:04:21;19.13;;;12.20;;
25437;SDS011;13364;49.084;9.978;2022-10-20T01:06:49;19.17;;;12.00;;
25437;SDS011;13364;49.084;9.978;2022-10-20T01:09:16;20.02;;;11.85;;
25437;SDS011;13364;49.084;9.978;2022-10-20T01:11:47;20.85;;;12.90;;
25437;SDS011;13364;49.084;9.978;2022-10-20T01:17:02;26.20;;;13.43;;
25437;SDS011;13364;49.084;9.978;2022-10-20T01:27:38;16.63;;;11.23;;
25437;SDS011;13364;49.084;9.978;2022-10-20T01:30:19;22.08;;;11.95;;
25437;SDS011;13364;49.084;9.978;2022-10-20T01:35:44;21.95;;;12.13;;
25437;SDS011;13364;49.084;9.978;2022-10-20T01:38:41;19.70;;;12.05;;
25437;SDS011;13364;49.084;9.978;2022-10-20T01:44:07;21.45;;;13.25;;
25437;SDS011;13364;49.084;9.978;2022-10-20T01:46:37;18.17;;;12.13;;
25437;SDS011;13364;49.084;9.978;2022-10-20T01:49:06;21.30;;;13.35;;
25437;SDS011;13364;49.084;9.978;2022-10-20T01:51:34;23.95;;;13.10;;
25437;SDS011;13364;49.084;9.978;2022-10-20T01:54:01;22.77;;;13.77;;
25437;SDS011;13364;49.084;9.978;2022-10-20T01:56:36;23.27;;;13.30;;
25437;SDS011;13364;49.084;9.978;2022-10-20T02:07:48;26.27;;;14.73;;
25437;SDS011;13364;49.084;9.978;2022-10-20T02:10:17;27.10;;;15.05;;
25437;SDS011;13364;49.084;9.978;2022-10-20T02:12:55;31.02;;;15.35;;
25437;SDS011;13364;49.084;9.978;2022-10-20T02:15:26;28.83;;;16.08;;
25437;SDS011;13364;49.084;9.978;2022-10-20T02:20:27;23.13;;;14.13;;
25437;SDS011;13364;49.084;9.978;2022-10-20T02:22:57;26.17;;;15.82;;
25437;SDS011;13364;49.084;9.978;2022-10-20T02:25:25;35.08;;;16.95;;
25437;SDS011;13364;49.084;9.978;2022-10-20T02:27:56;30.17;;;17.67;;
25437;SDS011;13364;49.084;9.978;2022-10-20T02:30:25;29.20;;;17.77;;
25437;SDS011;13364;49.084;9.978;2022-10-20T02:32:52;28.67;;;17.60;;
25437;SDS011;13364;49.084;9.978;2022-10-20T02:35:20;28.88;;;16.52;;
25437;SDS011;13364;49.084;9.978;2022-10-20T02:37:51;30.45;;;19.33;;
25437;SDS011;13364;49.084;9.978;2022-10-20T02:40:18;35.40;;;19.73;;
25437;SDS011;13364;49.084;9.978;2022-10-20T02:42:47;34.43;;;19.53;;
25437;SDS011;13364;49.084;9.978;2022-10-20T02:45:14;34.22;;;20.02;;
25437;SDS011;13364;49.084;9.978;2022-10-20T02:47:41;39.80;;;22.58;;
25437;SDS011;13364;49.084;9.978;2022-10-20T02:50:08;38.40;;;21.25;;
25437;SDS011;13364;49.084;9.978;2022-10-20T02:52:36;50.88;;;24.50;;
25437;SDS011;13364;49.084;9.978;2022-10-20T02:55:03;50.97;;;25.38;;
25437;SDS011;13364;49.084;9.978;2022-10-20T02:57:31;49.72;;;26.77;;
25437;SDS011;13364;49.084;9.978;2022-10-20T02:59:59;48.45;;;26.45;;
25437;SDS011;13364;49.084;9.978;2022-10-20T03:02:25;51.95;;;27.20;;
25437;SDS011;13364;49.084;9.978;2022-10-20T03:04:52;47.78;;;25.92;;
25437;SDS011;13364;49.084;9.978;2022-10-20T03:07:19;54.20;;;28.55;;
25437;SDS011;13364;49.084;9.978;2022-10-20T03:09:46;53.50;;;29.20;;
25437;SDS011;13364;49.084;9.978;2022-10-20T03:12:14;57.95;;;30.52;;
25437;SDS011;13364;49.084;9.978;2022-10-20T03:14:41;64.03;;;30.33;;
25437;SDS011;13364;49.084;9.978;2022-10-20T03:17:08;58.13;;;30.48;;
25437;SDS011;13364;49.084;9.978;2022-10-20T03:19:35;60.08;;;30.40;;
25437;SDS011;13364;49.084;9.978;2022-10-20T03:22:02;59.35;;;29.38;;
25437;SDS011;13364;49.084;9.978;2022-10-20T03:24:29;57.88;;;27.65;;
25437;SDS011;13364;49.084;9.978;2022-10-20T03:26:56;58.97;;;31.33;;
25437;SDS011;13364;49.084;9.978;2022-10-20T03:29:23;64.30;;;33.47;;
25437;SDS011;13364;49.084;9.978;2022-10-20T03:31:50;65.13;;;34.40;;
25437;SDS011;13364;49.084;9.978;2022-10-20T03:34:16;69.45;;;36.30;;
25437;SDS011;13364;49.084;9.978;2022-10-20T03:36:44;62.80;;;30.48;;
25437;SDS011;13364;49.084;9.978;2022-10-20T03:39:10;60.33;;;31.80;;
25437;SDS011;13364;49.084;9.978;2022-10-20T03:41:37;60.92;;;31.52;;
25437;SDS011;13364;49.084;9.978;2022-10-20T03:44:04;59.40;;;31.55;;
25437;SDS011;13364;49.084;9.978;2022-10-20T03:46:31;55.08;;;31.85;;
25437;SDS011;13364;49.084;9.978;2022-10-20T03:48:58;58.35;;;30.85;;
25437;SDS011;13364;49.084;9.978;2022-10-20T03:51:25;65.80;;;32.70;;
25437;SDS011;13364;49.084;9.978;2022-10-20T03:53:52;57.85;;;31.90;;
25437;SDS011;13364;49.084;9.978;2022-10-20T03:56:20;59.42;;;31.67;;
25437;SDS011;13364;49.084;9.978;2022-10-20T03:58:47;62.53;;;31.48;;
25437;SDS011;13364;49.084;9.978;2022-10-20T04:01:14;65.53;;;33.58;;
25437;SDS011;13364;49.084;9.978;2022-10-20T04:03:43;62.00;;;32.33;;
25437;SDS011;13364;49.084;9.978;2022-10-20T04:06:11;65.13;;;33.08;;
25437;SDS011;13364;49.084;9.978;2022-10-20T04:08:38;64.50;;;34.33;;
25437;SDS011;13364;49.084;9.978;2022-10-20T04:11:06;71.63;;;32.63;;
25437;SDS011;13364;49.084;9.978;2022-10-20T04:13:33;67.25;;;32.25;;
25437;SDS011;13364;49.084;9.978;2022-10-20T04:16:00;64.70;;;32.47;;
25437;SDS011;13364;49.084;9.978;2022-10-20T04:18:27;55.33;;;30.63;;
25437;SDS011;13364;49.084;9.978;2022-10-20T04:20:55;55.33;;;28.95;;
25437;SDS011;13364;49.084;9.978;2022-10-20T04:23:22;59.65;;;29.40;;
25437;SDS011;13364;49.084;9.978;2022-10-20T04:25:49;55.28;;;28.77;;
25437;SDS011;13364;49.084;9.978;2022-10-20T04:28:17;48.17;;;28.45;;
25437;SDS011;13364;49.084;9.978;2022-10-20T04:30:47;55.20;;;28.55;;
25437;SDS011;13364;49.084;9.978;2022-10-20T04:33:14;47.92;;;27.17;;
25437;SDS011;13364;49.084;9.978;2022-10-20T04:35:42;55.13;;;28.52;;
25437;SDS011;13364;49.084;9.978;2022-10-20T04:38:09;53.65;;;28.75;;
25437;SDS011;13364;49.084;9.978;2022-10-20T04:40:36;51.88;;;28.95;;
25437;SDS011;13364;49.084;9.978;2022-10-20T04:43:03;54.47;;;28.52;;
25437;SDS011;13364;49.084;9.978;2022-10-20T04:45:30;51.78;;;28.25;;
25437;SDS011;13364;49.084;9.978;2022-10-20T04:47:57;53.72;;;29.27;;
25437;SDS011;13364;49.084;9.978;2022-10-20T04:50:24;51.10;;;28.60;;
25437;SDS011;13364;49.084;9.978;2022-10-20T04:53:04;52.28;;;28.63;;
25437;SDS011;13364;49.084;9.978;2022-10-20T04:55:33;50.80;;;28.42;;
25437;SDS011;13364;49.084;9.978;2022-10-20T04:58:00;53.30;;;28.55;;
25437;SDS011;13364;49.084;9.978;2022-10-20T05:00:27;52.88;;;28.40;;
25437;SDS011;13364;49.084;9.978;2022-10-20T05:02:54;44.00;;;25.67;;
25437;SDS011;13364;49.084;9.978;2022-10-20T05:05:21;56.83;;;29.42;;
25437;SDS011;13364;49.084;9.978;2022-10-20T05:07:48;55.03;;;29.58;;
25437;SDS011;13364;49.084;9.978;2022-10-20T05:18:53;46.30;;;26.13;;
25437;SDS011;13364;49.084;9.978;2022-10-20T05:21:23;49.90;;;27.08;;
25437;SDS011;13364;49.084;9.978;2022-10-20T05:23:56;50.65;;;26.08;;
25437;SDS011;13364;49.084;9.978;2022-10-20T05:26:27;55.55;;;29.02;;
25437;SDS011;13364;49.084;9.978;2022-10-20T05:29:00;52.60;;;28.00;;
25437;SDS011;13364;49.084;9.978;2022-10-20T05:31:29;56.08;;;27.70;;
25437;SDS011;13364;49.084;9.978;2022-10-20T05:33:56;54.85;;;27.63;;
25437;SDS011;13364;49.084;9.978;2022-10-20T05:36:25;53.33;;;29.63;;
25437;SDS011;13364;49.084;9.978;2022-10-20T05:38:53;59.63;;;28.70;;
25437;SDS011;13364;49.084;9.978;2022-10-20T05:41:22;55.10;;;28.43;;
25437;SDS011;13364;49.084;9.978;2022-10-20T05:43:55;56.75;;;28.88;;
25437;SDS011;13364;49.084;9.978;2022-10-20T05:46:24;57.13;;;29.00;;
25437;SDS011;13364;49.084;9.978;2022-10-20T05:48:53;55.03;;;28.25;;
25437;SDS011;13364;49.084;9.978;2022-10-20T05:51:22;51.85;;;27.58;;
25437;SDS011;13364;49.084;9.978;2022-10-20T05:56:20;49.97;;;26.33;;
25437;SDS011;13364;49.084;9.978;2022-10-20T05:58:48;47.90;;;27.63;;
25437;SDS011;13364;49.084;9.978;2022-10-20T06:01:20;50.60;;;25.55;;
25437;SDS011;13364;49.084;9.978;2022-10-20T06:03:52;47.13;;;25.88;;
25437;SDS011;13364;49.084;9.978;2022-10-20T06:06:25;48.25;;;24.75;;
25437;SDS011;13364;49.084;9.978;2022-10-20T06:08:54;46.05;;;25.92;;
25437;SDS011;13364;49.084;9.978;2022-10-20T06:11:22;47.70;;;26.00;;
25437;SDS011;13364;49.084;9.978;2022-10-20T06:13:49;50.88;;;26.13;;
25437;SDS011;13364;49.084;9.978;2022-10-20T06:16:19;48.10;;;25.35;;
25437;SDS011;13364;49.084;9.978;2022-10-20T06:18:47;49.60;;;25.42;;
25437;SDS011;13364;49.084;9.978;2022-10-20T06:21:16;55.53;;;27.83;;
25437;SDS011;13364;49.084;9.978;2022-10-20T06:23:48;49.45;;;26.83;;
25437;SDS011;13364;49.084;9.978;2022-10-20T06:26:19;47.63;;;27.80;;
25437;SDS011;13364;49.084;9.978;2022-10-20T06:28:52;52.75;;;27.88;;
25437;SDS011;13364;49.084;9.978;2022-10-20T06:31:29;51.90;;;27.60;;
25437;SDS011;13364;49.084;9.978;2022-10-20T06:33:57;50.50;;;26.80;;
25437;SDS011;13364;49.084;9.978;2022-10-20T06:36:25;52.55;;;26.60;;
25437;SDS011;13364;49.084;9.978;2022-10-20T06:38:53;50.33;;;28.13;;
25437;SDS011;13364;49.084;9.978;2022-10-20T06:41:22;57.13;;;26.42;;
25437;SDS011;13364;49.084;9.978;2022-10-20T06:43:51;51.28;;;28.63;;
25437;SDS011;13364;49.084;9.978;2022-10-20T06:46:24;49.38;;;26.45;;
25437;SDS011;13364;49.084;9.978;2022-10-20T06:48:52;50.67;;;26.25;;
25437;SDS011;13364;49.084;9.978;2022-10-20T06:51:24;46.10;;;26.70;;
25437;SDS011;13364;49.084;9.978;2022-10-20T06:53:51;45.47;;;26.42;;
25437;SDS011;13364;49.084;9.978;2022-10-20T06:56:19;45.63;;;25.40;;
25437;SDS011;13364;49.084;9.978;2022-10-20T06:58:50;50.15;;;26.38;;
25437;SDS011;13364;49.084;9.978;2022-10-20T07:03:49;45.20;;;25.58;;
25437;SDS011;13364;49.084;9.978;2022-10-20T07:08:46;46.17;;;24.90;;
25437;SDS011;13364;49.084;9.978;2022-10-20T07:11:15;44.63;;;24.35;;
25437;SDS011;13364;49.084;9.978;2022-10-20T07:13:44;55.08;;;28.13;;
25437;SDS011;13364;49.084;9.978;2022-10-20T07:16:12;51.00;;;25.08;;
25437;SDS011;13364;49.084;9.978;2022-10-20T07:21:19;45.33;;;23.98;;
25437;SDS011;13364;49.084;9.978;2022-10-20T07:23:48;45.63;;;24.75;;
25437;SDS011;13364;49.084;9.978;2022-10-20T07:26:19;41.35;;;23.30;;
25437;SDS011;13364;49.084;9.978;2022-10-20T07:28:57;49.55;;;26.88;;
25437;SDS011;13364;49.084;9.978;2022-10-20T07:31:30;46.20;;;24.25;;
25437;SDS011;13364;49.084;9.978;2022-10-20T07:34:00;46.45;;;24.27;;
25437;SDS011;13364;49.084;9.978;2022-10-20T07:36:48;45.63;;;26.05;;
25437;SDS011;13364;49.084;9.978;2022-10-20T07:39:15;48.95;;;24.70;;
25437;SDS011;13364;49.084;9.978;2022-10-20T07:41:42;44.05;;;24.08;;
25437;SDS011;13364;49.084;9.978;2022-10-20T07:44:11;43.85;;;23.67;;
25437;SDS011;13364;49.084;9.978;2022-10-20T07:46:38;43.83;;;24.35;;
25437;SDS011;13364;49.084;9.978;2022-10-20T07:49:05;39.80;;;23.85;;
25437;SDS011;13364;49.084;9.978;2022-10-20T07:51:52;43.53;;;24.15;;
25437;SDS011;13364;49.084;9.978;2022-10-20T07:54:19;38.92;;;24.25;;
25437;SDS011;13364;49.084;9.978;2022-10-20T07:56:46;42.78;;;24.63;;
25437;SDS011;13364;49.084;9.978;2022-10-20T07:59:13;44.80;;;26.05;;
25437;SDS011;13364;49.084;9.978;2022-10-20T08:01:40;44.15;;;24.15;;
25437;SDS011;13364;49.084;9.978;2022-10-20T08:04:08;42.53;;;24.40;;
25437;SDS011;13364;49.084;9.978;2022-10-20T08:06:35;46.05;;;25.60;;
25437;SDS011;13364;49.084;9.978;2022-10-20T08:09:04;42.08;;;23.58;;
25437;SDS011;13364;49.084;9.978;2022-10-20T08:11:33;39.22;;;22.90;;
25437;SDS011;13364;49.084;9.978;2022-10-20T08:14:00;38.13;;;21.63;;
25437;SDS011;13364;49.084;9.978;2022-10-20T08:16:28;40.50;;;23.02;;
25437;SDS011;13364;49.084;9.978;2022-10-20T08:18:55;41.58;;;24.50;;
25437;SDS011;13364;49.084;9.978;2022-10-20T08:21:25;42.45;;;23.75;;
25437;SDS011;13364;49.084;9.978;2022-10-20T08:23:52;39.28;;;23.67;;
25437;SDS011;13364;49.084;9.978;2022-10-20T08:26:22;38.92;;;22.63;;
25437;SDS011;13364;49.084;9.978;2022-10-20T08:28:52;39.20;;;22.63;;
25437;SDS011;13364;49.084;9.978;2022-10-20T08:31:20;43.28;;;23.98;;
25437;SDS011;13364;49.084;9.978;2022-10-20T08:33:48;39.05;;;23.10;;
25437;SDS011;13364;49.084;9.978;2022-10-20T08:38:46;36.10;;;20.10;;
25437;SDS011;13364;49.084;9.978;2022-10-20T08:41:18;36.50;;;23.02;;
25437;SDS011;13364;49.084;9.978;2022-10-20T08:43:48;37.55;;;21.60;;
25437;SDS011;13364;49.084;9.978;2022-10-20T08:46:18;30.98;;;21.17;;
25437;SDS011;13364;49.084;9.978;2022-10-20T08:48:48;34.85;;;21.73;;
25437;SDS011;13364;49.084;9.978;2022-10-20T08:51:26;34.05;;;20.63;;
25437;SDS011;13364;49.084;9.978;2022-10-20T08:53:57;31.45;;;21.27;;
25437;SDS011;13364;49.084;9.978;2022-10-20T08:56:27;33.85;;;20.35;;
25437;SDS011;13364;49.084;9.978;2022-10-20T08:58:56;32.28;;;19.95;;
25437;SDS011;13364;49.084;9.978;2022-10-20T09:01:25;30.63;;;20.17;;
25437;SDS011;13364;49.084;9.978;2022-10-20T09:03:55;30.02;;;19.90;;
25437;SDS011;13364;49.084;9.978;2022-10-20T09:06:24;30.80;;;19.60;;
25437;SDS011;13364;49.084;9.978;2022-10-20T09:08:51;30.20;;;18.92;;
25437;SDS011;13364;49.084;9.978;2022-10-20T09:11:22;29.38;;;18.27;;
25437;SDS011;13364;49.084;9.978;2022-10-20T09:13:51;28.73;;;18.80;;
25437;SDS011;13364;49.084;9.978;2022-10-20T09:16:26;28.02;;;19.05;;
25437;SDS011;13364;49.084;9.978;2022-10-20T09:19:24;30.23;;;19.73;;
25437;SDS011;13364;49.084;9.978;2022-10-20T09:21:51;33.53;;;19.88;;
25437;SDS011;13364;49.084;9.978;2022-10-20T09:24:25;31.83;;;21.20;;
25437;SDS011;13364;49.084;9.978;2022-10-20T09:26:55;29.70;;;18.85;;
25437;SDS011;13364;49.084;9.978;2022-10-20T09:29:41;30.33;;;19.15;;
25437;SDS011;13364;49.084;9.978;2022-10-20T09:32:18;28.60;;;18.17;;
25437;SDS011;13364;49.084;9.978;2022-10-20T09:35:25;29.05;;;19.23;;
25437;SDS011;13364;49.084;9.978;2022-10-20T09:38:02;28.75;;;18.10;;
25437;SDS011;13364;49.084;9.978;2022-10-20T09:43:33;26.35;;;16.45;;
25437;SDS011;13364;49.084;9.978;2022-10-20T09:46:03;25.45;;;18.00;;
25437;SDS011;13364;49.084;9.978;2022-10-20T09:48:35;29.77;;;17.85;;
25437;SDS011;13364;49.084;9.978;2022-10-20T09:51:06;39.75;;;20.92;;
25437;SDS011;13364;49.084;9.978;2022-10-20T09:56:42;22.70;;;16.02;;
25437;SDS011;13364;49.084;9.978;2022-10-20T10:04:42;22.90;;;16.00;;
25437;SDS011;13364;49.084;9.978;2022-10-20T10:07:27;21.70;;;16.25;;
25437;SDS011;13364;49.084;9.978;2022-10-20T10:12:32;19.88;;;14.93;;
25437;SDS011;13364;49.084;9.978;2022-10-20T10:15:06;20.50;;;14.95;;
25437;SDS011;13364;49.084;9.978;2022-10-20T10:17:49;22.33;;;15.60;;
25437;SDS011;13364;49.084;9.978;2022-10-20T10:22:43;22.80;;;15.00;;
25437;SDS011;13364;49.084;9.978;2022-10-20T10:25:17;22.48;;;15.15;;
25437;SDS011;13364;49.084;9.978;2022-10-20T10:27:58;20.15;;;14.77;;
25437;SDS011;13364;49.084;9.978;2022-10-20T10:30:32;19.45;;;13.25;;
25437;SDS011;13364;49.084;9.978;2022-10-20T10:33:25;20.00;;;14.40;;
25437;SDS011;13364;49.084;9.978;2022-10-20T10:35:54;18.83;;;15.07;;
25437;SDS011;13364;49.084;9.978;2022-10-20T10:38:22;22.02;;;14.63;;
25437;SDS011;13364;49.084;9.978;2022-10-20T10:46:25;17.63;;;13.65;;
25437;SDS011;13364;49.084;9.978;2022-10-20T10:56:53;16.40;;;12.80;;
25437;SDS011;13364;49.084;9.978;2022-10-20T10:59:27;17.60;;;12.98;;
25437;SDS011;13364;49.084;9.978;2022-10-20T11:05:30;16.02;;;12.40;;
25437;SDS011;13364;49.084;9.978;2022-10-20T11:13:27;16.05;;;11.85;;
25437;SDS011;13364;49.084;9.978;2022-10-20T11:16:49;14.85;;;11.80;;
25437;SDS011;13364;49.084;9.978;2022-10-20T11:19:11;15.55;;;11.65;;
25437;SDS011;13364;49.084;9.978;2022-10-20T11:27:42;15.05;;;12.35;;
25437;SDS011;13364;49.084;9.978;2022-10-20T11:30:11;15.13;;;12.05;;
25437;SDS011;13364;49.084;9.978;2022-10-20T11:32:46;14.75;;;11.80;;
25437;SDS011;13364;49.084;9.978;2022-10-20T11:38:17;15.18;;;11.98;;
25437;SDS011;13364;49.084;9.978;2022-10-20T11:40:56;13.10;;;11.30;;
25437;SDS011;13364;49.084;9.978;2022-10-20T11:43:56;13.48;;;12.05;;
25437;SDS011;13364;49.084;9.978;2022-10-20T11:46:48;16.15;;;11.57;;
25437;SDS011;13364;49.084;9.978;2022-10-20T11:49:19;13.80;;;11.80;;
25437;SDS011;13364;49.084;9.978;2022-10-20T11:54:48;17.20;;;11.63;;
25437;SDS011;13364;49.084;9.978;2022-10-20T12:00:39;14.25;;;11.27;;
25437;SDS011;13364;49.084;9.978;2022-10-20T12:11:30;14.25;;;11.57;;
25437;SDS011;13364;49.084;9.978;2022-10-20T12:14:43;15.77;;;12.00;;
25437;SDS011;13364;49.084;9.978;2022-10-20T12:19:51;19.17;;;12.25;;
25437;SDS011;13364;49.084;9.978;2022-10-20T12:27:22;15.90;;;12.15;;
25437;SDS011;13364;49.084;9.978;2022-10-20T12:29:54;15.50;;;11.55;;
25437;SDS011;13364;49.084;9.978;2022-10-20T12:37:40;15.35;;;11.68;;
25437;SDS011;13364;49.084;9.978;2022-10-20T12:42:44;14.68;;;10.95;;
25437;SDS011;13364;49.084;9.978;2022-10-20T12:52:15;17.88;;;11.57;;
25437;SDS011;13364;49.084;9.978;2022-10-20T12:57:44;15.70;;;10.20;;
25437;SDS011;13364;49.084;9.978;2022-10-20T13:12:53;13.35;;;10.02;;
25437;SDS011;13364;49.084;9.978;2022-10-20T13:15:46;12.93;;;10.10;;
25437;SDS011;13364;49.084;9.978;2022-10-20T13:21:37;11.35;;;9.75;;
25437;SDS011;13364;49.084;9.978;2022-10-20T13:24:08;14.95;;;10.43;;
25437;SDS011;13364;49.084;9.978;2022-10-20T13:29:20;14.63;;;10.02;;
25437;SDS011;13364;49.084;9.978;2022-10-20T13:37:18;13.40;;;10.10;;
25437;SDS011;13364;49.084;9.978;2022-10-20T13:40:41;12.88;;;10.30;;
25437;SDS011;13364;49.084;9.978;2022-10-20T13:42:56;17.48;;;11.20;;
25437;SDS011;13364;49.084;9.978;2022-10-20T13:51:26;17.02;;;11.63;;
25437;SDS011;13364;49.084;9.978;2022-10-20T13:53:58;15.15;;;11.68;;
25437;SDS011;13364;49.084;9.978;2022-10-20T13:56:38;15.88;;;11.75;;
25437;SDS011;13364;49.084;9.978;2022-10-20T14:03:44;14.48;;;11.02;;
25437;SDS011;13364;49.084;9.978;2022-10-20T14:06:27;18.55;;;11.88;;
25437;SDS011;13364;49.084;9.978;2022-10-20T14:08:54;16.48;;;10.82;;
25437;SDS011;13364;49.084;9.978;2022-10-20T14:11:32;16.92;;;11.57;;
25437;SDS011;13364;49.084;9.978;2022-10-20T14:13:59;14.13;;;11.65;;
25437;SDS011;13364;49.084;9.978;2022-10-20T14:16:28;15.93;;;11.98;;
25437;SDS011;13364;49.084;9.978;2022-10-20T14:19:00;16.33;;;12.67;;
25437;SDS011;13364;49.084;9.978;2022-10-20T14:25:36;16.40;;;12.25;;
25437;SDS011;13364;49.084;9.978;2022-10-20T14:28:04;15.38;;;11.70;;
25437;SDS011;13364;49.084;9.978;2022-10-20T14:30:33;18.42;;;12.43;;
25437;SDS011;13364;49.084;9.978;2022-10-20T14:33:10;17.25;;;12.57;;
25437;SDS011;13364;49.084;9.978;2022-10-20T14:35:42;22.30;;;16.27;;
25437;SDS011;13364;49.084;9.978;2022-10-20T14:38:33;21.92;;;14.38;;
25437;SDS011;13364;49.084;9.978;2022-10-20T14:41:03;21.02;;;14.70;;
25437;SDS011;13364;49.084;9.978;2022-10-20T14:46:06;19.00;;;13.30;;
25437;SDS011;13364;49.084;9.978;2022-10-20T14:48:45;19.75;;;13.13;;
25437;SDS011;13364;49.084;9.978;2022-10-20T14:59:22;20.67;;;14.65;;
25437;SDS011;13364;49.084;9.978;2022-10-20T15:02:01;25.75;;;15.25;;
25437;SDS011;13364;49.084;9.978;2022-10-20T15:04:40;20.08;;;13.60;;
25437;SDS011;13364;49.084;9.978;2022-10-20T15:07:15;28.40;;;18.80;;
25437;SDS011;13364;49.084;9.978;2022-10-20T15:17:42;18.92;;;14.35;;
25437;SDS011;13364;49.084;9.978;2022-10-20T15:20:30;17.83;;;14.13;;
25437;SDS011;13364;49.084;9.978;2022-10-20T15:23:04;24.50;;;15.75;;
25437;SDS011;13364;49.084;9.978;2022-10-20T15:30:56;20.90;;;14.48;;
25437;SDS011;13364;49.084;9.978;2022-10-20T15:33:24;22.25;;;14.48;;
25437;SDS011;13364;49.084;9.978;2022-10-20T15:35:51;26.58;;;17.20;;
25437;SDS011;13364;49.084;9.978;2022-10-20T15:38:18;22.52;;;14.88;;
25437;SDS011;13364;49.084;9.978;2022-10-20T15:40:46;20.33;;;14.70;;
25437;SDS011;13364;49.084;9.978;2022-10-20T15:43:17;22.98;;;14.43;;
25437;SDS011;13364;49.084;9.978;2022-10-20T15:45:46;20.92;;;13.30;;
25437;SDS011;13364;49.084;9.978;2022-10-20T15:48:18;20.77;;;13.15;;
25437;SDS011;13364;49.084;9.978;2022-10-20T15:50:45;19.90;;;14.07;;
25437;SDS011;13364;49.084;9.978;2022-10-20T15:53:12;21.95;;;13.77;;
25437;SDS011;13364;49.084;9.978;2022-10-20T15:55:40;26.23;;;14.13;;
25437;SDS011;13364;49.084;9.978;2022-10-20T15:58:08;20.73;;;13.95;;
25437;SDS011;13364;49.084;9.978;2022-10-20T16:00:35;21.60;;;15.05;;
25437;SDS011;13364;49.084;9.978;2022-10-20T16:03:03;19.98;;;15.13;;
25437;SDS011;13364;49.084;9.978;2022-10-20T16:05:30;25.00;;;14.25;;
25437;SDS011;13364;49.084;9.978;2022-10-20T16:07:58;25.23;;;15.20;;
25437;SDS011;13364;49.084;9.978;2022-10-20T16:10:25;21.20;;;15.75;;
25437;SDS011;13364;49.084;9.978;2022-10-20T16:12:56;20.13;;;14.45;;
25437;SDS011;13364;49.084;9.978;2022-10-20T16:15:24;20.48;;;14.48;;
25437;SDS011;13364;49.084;9.978;2022-10-20T16:24:03;24.98;;;15.60;;
25437;SDS011;13364;49.084;9.978;2022-10-20T16:26:31;27.23;;;16.27;;
25437;SDS011;13364;49.084;9.978;2022-10-20T16:33:24;27.02;;;17.60;;
25437;SDS011;13364;49.084;9.978;2022-10-20T16:35:53;28.25;;;16.92;;
25437;SDS011;13364;49.084;9.978;2022-10-20T16:38:20;24.38;;;18.05;;
25437;SDS011;13364;49.084;9.978;2022-10-20T16:41:00;26.83;;;19.85;;
25437;SDS011;13364;49.084;9.978;2022-10-20T16:43:31;25.95;;;17.30;;
25437;SDS011;13364;49.084;9.978;2022-10-20T16:46:12;26.40;;;17.40;;
25437;SDS011;13364;49.084;9.978;2022-10-20T16:48:40;23.13;;;17.20;;
25437;SDS011;13364;49.084;9.978;2022-10-20T16:51:12;25.02;;;17.63;;
25437;SDS011;13364;49.084;9.978;2022-10-20T16:53:40;25.67;;;15.93;;
25437;SDS011;13364;49.084;9.978;2022-10-20T16:56:07;23.70;;;15.95;;
25437;SDS011;13364;49.084;9.978;2022-10-20T16:58:34;24.15;;;16.85;;
25437;SDS011;13364;49.084;9.978;2022-10-20T17:01:03;26.85;;;17.67;;
25437;SDS011;13364;49.084;9.978;2022-10-20T17:03:34;27.83;;;16.02;;
25437;SDS011;13364;49.084;9.978;2022-10-20T17:10:20;24.58;;;16.88;;
25437;SDS011;13364;49.084;9.978;2022-10-20T17:12:47;26.75;;;18.40;;
25437;SDS011;13364;49.084;9.978;2022-10-20T17:15:15;31.42;;;22.42;;
25437;SDS011;13364;49.084;9.978;2022-10-20T17:17:42;29.45;;;22.63;;
25437;SDS011;13364;49.084;9.978;2022-10-20T17:24:12;27.35;;;17.80;;
25437;SDS011;13364;49.084;9.978;2022-10-20T17:38:40;27.55;;;16.70;;
25437;SDS011;13364;49.084;9.978;2022-10-20T17:41:09;27.10;;;17.58;;
25437;SDS011;13364;49.084;9.978;2022-10-20T17:43:38;26.40;;;17.88;;
25437;SDS011;13364;49.084;9.978;2022-10-20T17:46:07;24.45;;;16.85;;
25437;SDS011;13364;49.084;9.978;2022-10-20T17:48:37;26.00;;;17.05;;
25437;SDS011;13364;49.084;9.978;2022-10-20T17:51:05;25.08;;;17.20;;
25437;SDS011;13364;49.084;9.978;2022-10-20T17:57:18;26.38;;;17.85;;
25437;SDS011;13364;49.084;9.978;2022-10-20T17:59:45;28.35;;;18.23;;
25437;SDS011;13364;49.084;9.978;2022-10-20T18:02:19;26.08;;;18.80;;
25437;SDS011;13364;49.084;9.978;2022-10-20T18:04:49;29.15;;;19.00;;
25437;SDS011;13364;49.084;9.978;2022-10-20T18:07:16;30.23;;;20.50;;
25437;SDS011;13364;49.084;9.978;2022-10-20T18:09:43;30.10;;;18.95;;
25437;SDS011;13364;49.084;9.978;2022-10-20T18:12:10;28.45;;;18.20;;
25437;SDS011;13364;49.084;9.978;2022-10-20T18:14:50;26.85;;;18.55;;
25437;SDS011;13364;49.084;9.978;2022-10-20T18:17:16;32.75;;;19.08;;
25437;SDS011;13364;49.084;9.978;2022-10-20T18:19:43;27.85;;;17.77;;
25437;SDS011;13364;49.084;9.978;2022-10-20T18:22:10;25.33;;;17.48;;
25437;SDS011;13364;49.084;9.978;2022-10-20T18:24:37;28.77;;;18.08;;
25437;SDS011;13364;49.084;9.978;2022-10-20T18:27:05;35.80;;;18.33;;
25437;SDS011;13364;49.084;9.978;2022-10-20T18:29:32;27.08;;;17.73;;
25437;SDS011;13364;49.084;9.978;2022-10-20T18:31:59;24.70;;;16.95;;
25437;SDS011;13364;49.084;9.978;2022-10-20T18:34:26;28.35;;;18.25;;
25437;SDS011;13364;49.084;9.978;2022-10-20T18:36:53;32.38;;;19.42;;
25437;SDS011;13364;49.084;9.978;2022-10-20T18:39:20;25.20;;;16.63;;